createdAt,value
2023-02-13T16:06:17.270Z,13.70
2023-02-13T16:08:52.978Z,15.60
2023-02-13T16:11:51.312Z,6.90
2023-02-13T16:14:28.447Z,9.60
2023-02-13T16:17:08.489Z,8.80
2023-02-13T16:19:51.996Z,7.30
2023-02-13T16:22:37.466Z,9.00
2023-02-13T16:25:12.170Z,5.70
2023-02-13T16:27:53.204Z,7.10
2023-02-13T16:30:33.949Z,6.80
2023-02-13T16:33:14.737Z,8.60
2023-02-13T16:35:45.615Z,8.10
2023-02-13T16:38:34.741Z,11.80
2023-02-13T16:41:23.433Z,7.10
2023-02-13T16:44:05.612Z,12.50
2023-02-13T16:46:37.941Z,10.50
2023-02-13T16:49:09.853Z,10.30
2023-02-13T16:51:43.507Z,5.40
2023-02-13T16:54:11.966Z,8.40
2023-02-13T16:56:59.267Z,11.40
2023-02-13T16:59:43.255Z,12.50
2023-02-13T17:02:15.458Z,9.90
2023-02-13T17:07:24.028Z,11.50
2023-02-13T17:09:54.782Z,14.10
2023-02-13T17:12:24.523Z,10.30
2023-02-13T17:14:53.745Z,15.50
2023-02-13T17:17:23.472Z,7.20
2023-02-13T17:19:51.846Z,8.70
2023-02-13T17:22:32.038Z,18.10
2023-02-13T17:25:02.778Z,12.10
2023-02-13T17:27:31.656Z,13.00
2023-02-13T17:30:00.068Z,12.40
2023-02-13T17:32:30.182Z,14.60
2023-02-13T17:35:00.104Z,14.20
2023-02-13T17:37:30.267Z,9.70
2023-02-13T17:39:58.829Z,12.70
2023-02-13T17:42:29.398Z,13.30
2023-02-13T17:44:58.886Z,9.60
2023-02-13T17:47:27.846Z,8.80
2023-02-13T17:50:05.140Z,9.70
2023-02-13T17:55:17.723Z,13.90
2023-02-13T17:57:46.282Z,13.10
2023-02-13T18:00:15.948Z,14.80
2023-02-13T18:02:44.795Z,12.00
2023-02-13T18:05:13.969Z,8.90
2023-02-13T18:07:44.384Z,11.30
2023-02-13T18:10:27.750Z,9.90
2023-02-13T18:13:04.100Z,19.60
2023-02-13T18:15:44.899Z,9.60
2023-02-13T18:18:16.703Z,11.10
2023-02-13T18:20:45.390Z,12.00
2023-02-13T18:23:14.329Z,12.20
2023-02-13T18:25:43.386Z,6.80
2023-02-13T18:28:11.867Z,6.90
2023-02-13T18:30:42.822Z,12.00
2023-02-13T18:33:12.160Z,8.00
2023-02-13T18:35:42.482Z,8.10
2023-02-13T18:38:10.938Z,7.30
2023-02-13T18:40:41.278Z,7.60
2023-02-13T18:43:09.753Z,14.30
2023-02-13T18:45:39.016Z,8.50
2023-02-13T18:48:10.094Z,16.30
2023-02-13T18:50:43.028Z,12.30
2023-02-13T18:53:14.015Z,11.80
2023-02-13T18:55:45.116Z,11.70
2023-02-13T18:58:13.795Z,9.00
2023-02-13T19:00:43.543Z,8.80
2023-02-13T19:03:13.223Z,6.60
2023-02-13T19:05:42.805Z,7.10
2023-02-13T19:08:11.449Z,11.60
2023-02-13T19:10:40.260Z,17.90
2023-02-13T19:13:09.320Z,12.60
2023-02-13T19:15:39.416Z,9.40
2023-02-13T19:18:08.113Z,11.70
2023-02-13T19:20:38.830Z,5.90
2023-02-13T19:23:07.238Z,9.00
2023-02-13T19:25:40.149Z,15.50
2023-02-13T19:28:08.772Z,12.30
2023-02-13T19:30:37.338Z,9.40
2023-02-13T19:33:06.004Z,9.00
2023-02-13T19:35:34.801Z,8.40
2023-02-13T19:38:04.115Z,8.00
2023-02-13T19:40:35.183Z,12.40
2023-02-13T19:43:03.799Z,15.40
2023-02-13T19:45:33.185Z,11.30
2023-02-13T19:48:02.816Z,9.70
2023-02-13T19:50:31.268Z,8.70
2023-02-13T19:52:59.539Z,9.20
2023-02-13T19:55:27.796Z,12.90
2023-02-13T19:57:56.102Z,8.70
2023-02-13T20:00:26.645Z,10.90
2023-02-13T20:03:05.853Z,11.70
2023-02-13T20:05:41.384Z,10.30
2023-02-13T20:08:10.925Z,13.40
2023-02-13T20:10:45.507Z,9.50
2023-02-13T20:13:16.025Z,8.70
2023-02-13T20:15:44.531Z,10.70
2023-02-13T20:18:13.006Z,23.20
2023-02-13T20:20:41.733Z,15.80
2023-02-13T20:23:10.203Z,18.30
2023-02-13T20:25:39.537Z,13.80
2023-02-13T20:28:11.455Z,14.50
2023-02-13T20:30:42.281Z,29.10
2023-02-13T20:33:11.522Z,35.40
2023-02-13T20:35:39.852Z,35.50
2023-02-13T20:38:08.583Z,25.20
2023-02-13T20:40:37.324Z,29.60
2023-02-13T20:43:25.403Z,27.60
2023-02-13T20:45:56.667Z,20.80
2023-02-13T20:48:25.156Z,14.10
2023-02-13T20:51:01.547Z,12.80
2023-02-13T20:53:31.048Z,15.60
2023-02-13T20:56:15.713Z,13.30
2023-02-13T20:58:45.797Z,13.00
2023-02-13T21:01:21.149Z,9.60
2023-02-13T21:03:54.655Z,14.30
2023-02-13T21:06:35.010Z,14.50
2023-02-13T21:09:05.171Z,15.50
2023-02-13T21:11:36.558Z,17.80
2023-02-13T21:14:05.874Z,14.40
2023-02-13T21:16:36.754Z,22.80
2023-02-13T21:19:08.325Z,18.60
2023-02-13T21:21:39.036Z,19.40
2023-02-13T21:24:09.612Z,16.50
2023-02-13T21:26:39.364Z,13.30
2023-02-13T21:29:07.816Z,15.10
2023-02-13T21:31:40.655Z,14.10
2023-02-13T21:34:11.834Z,23.00
2023-02-13T21:36:41.028Z,22.80
2023-02-13T21:39:11.097Z,15.10
2023-02-13T21:41:41.424Z,13.90
2023-02-13T21:44:14.322Z,14.60
2023-02-13T21:46:44.622Z,13.60
2023-02-13T21:49:15.983Z,13.80
2023-02-13T21:51:45.525Z,12.90
2023-02-13T21:54:33.723Z,14.80
2023-02-13T21:57:02.607Z,22.70
2023-02-13T21:59:32.164Z,14.50
2023-02-13T22:02:02.969Z,18.70
2023-02-13T22:04:31.715Z,14.10
2023-02-13T22:06:59.963Z,16.00
2023-02-13T22:09:28.281Z,15.90
2023-02-13T22:11:56.600Z,13.70
2023-02-13T22:14:26.010Z,11.90
2023-02-13T22:16:54.782Z,8.90
2023-02-13T22:21:55.693Z,16.50
2023-02-13T22:24:24.041Z,14.60
2023-02-13T22:26:52.566Z,13.50
2023-02-13T22:29:23.181Z,14.30
2023-02-13T22:31:51.877Z,17.50
2023-02-13T22:34:20.579Z,15.20
2023-02-13T22:36:48.918Z,14.90
2023-02-13T22:39:17.179Z,14.60
2023-02-13T22:41:46.434Z,16.10
2023-02-13T22:44:14.706Z,20.30
2023-02-13T22:46:44.762Z,22.80
2023-02-13T22:49:13.580Z,23.30
2023-02-13T22:51:42.757Z,19.40
2023-02-13T22:54:11.527Z,18.00
2023-02-13T22:56:39.801Z,19.60
2023-02-13T22:59:09.124Z,20.00
2023-02-13T23:01:38.500Z,30.10
2023-02-13T23:04:06.902Z,42.10
2023-02-13T23:06:35.390Z,23.20
2023-02-13T23:09:04.220Z,21.10
2023-02-13T23:11:51.091Z,21.90
2023-02-13T23:14:23.621Z,21.20
2023-02-13T23:19:38.619Z,24.30
2023-02-13T23:22:07.196Z,21.80
2023-02-13T23:24:35.425Z,21.20
2023-02-13T23:27:03.800Z,19.20
2023-02-13T23:29:32.203Z,22.50
2023-02-13T23:32:01.083Z,19.50
2023-02-13T23:34:29.860Z,22.50
2023-02-13T23:36:58.060Z,15.90
2023-02-13T23:39:26.360Z,16.90
2023-02-13T23:41:54.596Z,18.40
2023-02-13T23:44:23.223Z,17.40
2023-02-13T23:46:51.548Z,19.00
2023-02-13T23:49:21.085Z,16.60
2023-02-13T23:51:49.533Z,14.90
2023-02-13T23:54:20.412Z,24.20
2023-02-13T23:56:54.676Z,28.10
2023-02-13T23:59:24.644Z,23.40
